Time;durP1;ratioP1;P1;durP2;ratioP2;P2;SDS_P1;SDS_P2;PMS_P1;PMS_P2;Temp;Humidity;BMP_temperature;BMP_pressure;BME280_temperature;BME280_humidity;BME280_pressure;Samples;Min_cycle;Max_cycle;Signal;HPM_P1;HPM_P2
2022/07/08 00:00:21;;;;;;;0.40;0.40;;;;;;;16.78;88.69;96272.19;4369110;32;20292;-59
2022/07/08 00:02:47;;;;;;;0.70;0.70;;;;;;;16.69;87.80;96275.91;4362573;32;20193;-59
2022/07/08 00:05:16;;;;;;;2.03;0.70;;;;;;;16.76;88.31;96266.34;4364553;32;20267;-59
2022/07/08 00:07:42;;;;;;;0.57;0.57;;;;;;;16.76;87.90;96278.94;4351932;32;20196;-60
2022/07/08 00:10:10;;;;;;;1.60;0.80;;;;;;;16.82;88.54;96272.38;4351270;32;20231;-59
2022/07/08 00:12:36;;;;;;;0.80;0.80;;;;;;;16.75;87.28;96277.38;4272364;32;20215;-60
2022/07/08 00:15:05;;;;;;;0.50;0.50;;;;;;;16.75;87.72;96277.38;4347674;32;20213;-60
2022/07/08 00:17:30;;;;;;;0.30;0.30;;;;;;;16.72;86.62;96277.97;4370850;32;20196;-59
2022/07/08 00:19:58;;;;;;;1.17;1.17;;;;;;;16.79;86.77;96279.13;4361348;32;20216;-59
2022/07/08 00:22:25;;;;;;;0.93;0.87;;;;;;;16.59;86.41;96279.63;4358121;32;20192;-59
2022/07/08 00:24:57;;;;;;;0.47;0.47;;;;;;;16.71;86.53;96273.72;4359440;32;20227;-59
2022/07/08 00:27:26;;;;;;;0.47;0.47;;;;;;;16.79;86.92;96272.97;4373241;32;20204;-59
2022/07/08 00:29:52;;;;;;;0.60;0.60;;;;;;;16.90;87.64;96274.28;4357561;32;20395;-59
2022/07/08 00:32:19;;;;;;;0.30;0.30;;;;;;;16.81;85.87;96271.56;4355726;32;20189;-59
2022/07/08 00:34:47;;;;;;;0.33;0.33;;;;;;;16.76;85.87;96265.56;4317233;32;20280;-59
2022/07/08 00:37:13;;;;;;;0.70;0.70;;;;;;;16.70;87.45;96269.47;4368897;32;20219;-59
2022/07/08 00:39:40;;;;;;;1.13;0.67;;;;;;;16.70;87.83;96269.47;4362162;32;20189;-59
2022/07/08 00:42:07;;;;;;;0.60;0.60;;;;;;;16.76;87.71;96269.03;4338740;32;20208;-59
2022/07/08 00:44:34;;;;;;;0.50;0.50;;;;;;;16.74;85.94;96273.91;4372615;32;20192;-64
2022/07/08 00:47:03;;;;;;;0.73;0.67;;;;;;;16.67;86.79;96270.84;4364522;32;20195;-59
2022/07/08 00:49:29;;;;;;;0.40;0.40;;;;;;;16.65;87.39;96277.62;4317799;32;20204;-59
2022/07/08 00:51:57;;;;;;;12.33;0.70;;;;;;;16.65;89.25;96277.62;4384980;32;20197;-59
2022/07/08 00:54:29;;;;;;;0.47;0.47;;;;;;;16.77;87.90;96281.31;4364960;32;20212;-59
2022/07/08 00:56:57;;;;;;;0.33;0.33;;;;;;;16.74;87.50;96276.56;4370306;32;20279;-59
2022/07/08 00:59:26;;;;;;;0.40;0.40;;;;;;;16.78;87.66;96276.75;4355665;32;20283;-59
2022/07/08 01:01:52;;;;;;;0.80;0.80;;;;;;;16.71;87.71;96274.50;4353723;32;20326;-59
2022/07/08 01:04:19;;;;;;;2.57;0.70;;;;;;;16.74;88.27;96268.53;4373513;32;20219;-59
2022/07/08 01:06:45;;;;;;;0.50;0.50;;;;;;;16.70;88.58;96272.13;4372962;32;20250;-60
2022/07/08 01:09:14;;;;;;;0.73;0.73;;;;;;;16.78;87.48;96274.06;4364292;32;20193;-59
2022/07/08 01:11:48;;;;;;;0.73;0.73;;;;;;;16.88;87.52;96276.47;4365220;32;20201;-60
2022/07/08 01:14:15;;;;;;;0.63;0.63;;;;;;;16.93;87.69;96276.34;4358945;32;20205;-59
2022/07/08 01:16:41;;;;;;;1.30;0.73;;;;;;;16.91;86.86;96275.84;4348833;32;20251;-60
2022/07/08 01:19:07;;;;;;;0.50;0.50;;;;;;;17.06;88.31;96277.31;4371042;32;20201;-59
2022/07/08 01:21:33;;;;;;;0.67;0.67;;;;;;;17.00;86.41;96276.69;4360278;32;20196;-66
2022/07/08 01:23:59;;;;;;;0.93;0.93;;;;;;;16.93;86.54;96278.22;4379664;32;20242;-60
2022/07/08 01:26:28;;;;;;;0.50;0.50;;;;;;;17.06;86.37;96283.47;4366450;32;20254;-60
2022/07/08 01:28:54;;;;;;;0.47;0.47;;;;;;;17.04;86.28;96277.62;4372276;32;20189;-59
2022/07/08 01:31:22;;;;;;;0.70;0.70;;;;;;;16.84;86.25;96278.19;4363492;32;20362;-59
2022/07/08 01:33:47;;;;;;;0.60;0.60;;;;;;;17.01;85.77;96280.94;4354430;32;20254;-58
2022/07/08 01:36:14;;;;;;;0.43;0.43;;;;;;;17.07;85.97;96278.91;4373275;32;20216;-59
2022/07/08 01:38:40;;;;;;;3.50;0.87;;;;;;;17.07;85.45;96285.03;4371866;32;20204;-59
2022/07/08 01:41:07;;;;;;;0.60;0.60;;;;;;;17.02;85.12;96287.88;4350496;32;20204;-59
2022/07/08 01:43:34;;;;;;;0.70;0.70;;;;;;;17.21;85.31;96278.78;4369238;32;20204;-59
2022/07/08 01:46:02;;;;;;;0.90;0.90;;;;;;;17.15;84.94;96281.63;4350489;32;20230;-59
2022/07/08 01:48:30;;;;;;;0.73;0.73;;;;;;;17.19;83.89;96292.50;4371869;32;20218;-59
2022/07/08 01:50:59;;;;;;;0.40;0.40;;;;;;;17.28;84.07;96295.19;4364150;32;20216;-59
2022/07/08 01:53:25;;;;;;;0.47;0.47;;;;;;;17.23;84.40;96287.31;4362970;32;20284;-59
2022/07/08 01:55:53;;;;;;;0.73;0.73;;;;;;;17.21;84.33;96292.22;4337005;32;20215;-60
2022/07/08 01:58:20;;;;;;;0.40;0.40;;;;;;;17.24;83.59;96288.91;4359994;32;20224;-60
2022/07/08 02:00:46;;;;;;;0.60;0.60;;;;;;;17.39;82.91;96291.94;4370555;32;20232;-59
2022/07/08 02:03:13;;;;;;;0.83;0.83;;;;;;;17.41;83.90;96299.66;4370158;32;20197;-59
2022/07/08 02:05:46;;;;;;;0.77;0.77;;;;;;;17.24;84.08;96297.75;4362874;32;20193;-59
2022/07/08 02:08:17;;;;;;;0.63;0.63;;;;;;;17.30;83.79;96299.16;4371582;32;20192;-59
2022/07/08 02:13:33;;;;;;;0.57;0.57;;;;;;;17.15;83.91;96299.59;4331608;32;20207;-59
2022/07/08 02:16:08;;;;;;;0.37;0.37;;;;;;;17.12;84.39;96303.69;4376494;32;20192;-59
2022/07/08 02:18:35;;;;;;;1.27;0.63;;;;;;;17.16;83.12;96299.28;4361391;32;20338;-60
2022/07/08 02:21:07;;;;;;;0.40;0.40;;;;;;;17.01;83.86;96298.91;4370328;32;20195;-59
2022/07/08 02:23:33;;;;;;;0.40;0.40;;;;;;;16.71;83.79;96306.66;4363005;32;20193;-59
2022/07/08 02:25:59;;;;;;;0.67;0.67;;;;;;;16.76;83.97;96300.38;4378224;32;20179;-59
2022/07/08 02:28:27;;;;;;;0.13;0.13;;;;;;;16.67;82.31;96311.06;4353790;32;20193;-59
2022/07/08 02:30:57;;;;;;;0.50;0.50;;;;;;;16.54;83.10;96317.25;4364870;32;20249;-59
2022/07/08 02:33:24;;;;;;;0.43;0.43;;;;;;;16.43;83.54;96311.34;4353411;32;20272;-59
2022/07/08 02:35:51;;;;;;;0.50;0.50;;;;;;;16.34;82.72;96315.88;4345846;32;20181;-59
2022/07/08 02:38:17;;;;;;;0.70;0.70;;;;;;;16.22;81.14;96325.53;4355541;32;20235;-61
2022/07/08 02:40:45;;;;;;;0.53;0.47;;;;;;;16.10;80.84;96329.56;4333572;32;20181;-59
2022/07/08 02:43:11;;;;;;;0.57;0.57;;;;;;;15.90;82.22;96337.25;4356273;32;20196;-59
2022/07/08 02:45:38;;;;;;;0.50;0.50;;;;;;;15.89;83.75;96339.16;4361700;32;20207;-59
2022/07/08 02:48:06;;;;;;;1.83;0.70;;;;;;;15.89;84.13;96335.69;4330915;32;20212;-59
2022/07/08 02:50:36;;;;;;;5.53;0.77;;;;;;;15.86;84.24;96341.63;4351360;32;20192;-59
2022/07/08 02:53:04;;;;;;;0.80;0.80;;;;;;;15.73;82.86;96344.03;4357648;32;20203;-64
2022/07/08 02:55:30;;;;;;;0.33;0.33;;;;;;;15.75;83.26;96351.78;4368023;32;20214;-59
2022/07/08 02:57:57;;;;;;;0.40;0.40;;;;;;;15.75;83.17;96360.59;4380083;32;20219;-59
2022/07/08 03:00:24;;;;;;;0.33;0.33;;;;;;;15.75;83.66;96360.59;4363896;32;20198;-59
2022/07/08 03:02:51;;;;;;;5.10;0.93;;;;;;;15.65;82.69;96363.47;4337487;32;20223;-59
2022/07/08 03:05:16;;;;;;;0.73;0.73;;;;;;;15.50;83.07;96360.28;4349081;32;20184;-59
2022/07/08 03:07:41;;;;;;;0.70;0.33;;;;;;;15.39;84.64;96365.81;4346502;32;20215;-59
2022/07/08 03:10:08;;;;;;;0.37;0.37;;;;;;;15.42;86.21;96365.25;4364951;32;20262;-59
2022/07/08 03:12:35;;;;;;;0.50;0.50;;;;;;;15.38;83.86;96374.19;4352316;32;20285;-60
2022/07/08 03:15:02;;;;;;;0.30;0.30;;;;;;;15.43;83.63;96384.75;4353706;32;20275;-59
2022/07/08 03:17:29;;;;;;;0.30;0.30;;;;;;;15.42;83.34;96386.63;4343975;32;20202;-59
2022/07/08 03:19:55;;;;;;;0.73;0.73;;;;;;;15.11;78.99;96405.16;4361463;32;20268;-58
2022/07/08 03:22:22;;;;;;;0.40;0.37;;;;;;;15.20;82.83;96399.09;4360889;32;20189;-59
2022/07/08 03:24:49;;;;;;;0.30;0.30;;;;;;;15.43;82.35;96401.59;4363433;32;20286;-59
2022/07/08 03:27:14;;;;;;;0.63;0.63;;;;;;;15.45;78.70;96403.97;4354220;32;20204;-59
2022/07/08 03:29:42;;;;;;;1.03;0.43;;;;;;;15.35;75.26;96417.56;4363159;32;20226;-59
2022/07/08 03:32:08;;;;;;;1.63;0.40;;;;;;;15.16;75.93;96419.50;4359206;32;20244;-59
2022/07/08 03:34:36;;;;;;;0.53;0.53;;;;;;;15.05;75.84;96417.00;4324073;32;20207;-59
2022/07/08 03:37:02;;;;;;;0.20;0.20;;;;;;;15.18;77.68;96422.66;4352100;32;20208;-58
2022/07/08 03:39:29;;;;;;;0.17;0.17;;;;;;;15.25;76.52;96420.41;4355949;32;20200;-58
2022/07/08 03:41:55;;;;;;;1.23;1.03;;;;;;;15.30;76.94;96436.34;4367324;32;20365;-59
2022/07/08 03:44:20;;;;;;;0.87;0.70;;;;;;;15.35;78.78;96438.94;4365695;32;20193;-59
2022/07/08 03:46:47;;;;;;;0.40;0.40;;;;;;;15.51;77.48;96434.87;4334896;32;20315;-59
2022/07/08 03:49:14;;;;;;;0.53;0.53;;;;;;;15.60;78.69;96440.34;4344877;32;20197;-59
2022/07/08 03:51:41;;;;;;;1.03;0.80;;;;;;;15.64;77.19;96444.03;4372073;32;20248;-59
2022/07/08 03:54:06;;;;;;;0.27;0.27;;;;;;;15.60;77.73;96445.69;4348329;32;20189;-59
2022/07/08 03:56:34;;;;;;;0.33;0.33;;;;;;;15.65;78.21;96454.44;4344304;32;20210;-63
2022/07/08 03:59:00;;;;;;;0.37;0.37;;;;;;;15.54;74.58;96466.41;4319646;32;20206;-58
2022/07/08 04:01:28;;;;;;;0.20;0.20;;;;;;;15.44;74.93;96469.25;4362576;32;20201;-59
2022/07/08 04:03:54;;;;;;;1.13;0.30;;;;;;;15.48;77.63;96470.25;4330236;32;20229;-58
2022/07/08 04:06:20;;;;;;;1.40;0.53;;;;;;;15.43;76.72;96475.69;4363816;32;20177;-59
2022/07/08 04:08:46;;;;;;;0.40;0.40;;;;;;;15.41;74.45;96484.00;4344005;32;20261;-59
2022/07/08 04:11:16;;;;;;;1.70;0.77;;;;;;;15.57;79.04;96486.44;4353185;32;20197;-58
2022/07/08 04:13:42;;;;;;;0.47;0.47;;;;;;;15.56;76.49;96498.22;4359915;32;20184;-58
2022/07/08 04:16:13;;;;;;;0.63;0.63;;;;;;;15.69;76.97;96503.59;4357825;32;20289;-59
2022/07/08 04:18:55;;;;;;;1.43;0.23;;;;;;;15.51;72.79;96500.97;4366360;32;20195;-58
2022/07/08 04:21:22;;;;;;;2.23;1.20;;;;;;;15.63;77.77;96493.25;4374195;32;20196;-59
2022/07/08 04:23:49;;;;;;;1.20;0.70;;;;;;;15.61;75.68;96495.44;4355206;32;20244;-59
2022/07/08 04:26:16;;;;;;;2.33;0.77;;;;;;;15.51;77.29;96499.06;4365960;32;20225;-59
2022/07/08 04:28:43;;;;;;;0.43;0.43;;;;;;;15.53;73.85;96502.25;4372474;32;20192;-58
2022/07/08 04:31:11;;;;;;;0.10;0.10;;;;;;;15.59;73.19;96500.31;4371762;32;20205;-59
2022/07/08 04:33:40;;;;;;;2.33;0.70;;;;;;;15.54;76.36;96501.16;4358392;32;20309;-59
2022/07/08 04:36:10;;;;;;;1.43;0.73;;;;;;;15.56;75.44;96499.03;4373177;32;20274;-59
2022/07/08 04:38:37;;;;;;;11.70;0.90;;;;;;;15.61;75.71;96501.56;4354413;32;20244;-59
2022/07/08 04:41:06;;;;;;;0.30;0.30;;;;;;;15.85;78.42;96509.44;4363439;32;20212;-58
2022/07/08 04:43:35;;;;;;;0.60;0.50;;;;;;;15.71;76.65;96514.00;4372175;32;20238;-59
2022/07/08 04:46:06;;;;;;;0.43;0.43;;;;;;;15.69;75.55;96505.47;4338305;32;20193;-58
2022/07/08 04:48:32;;;;;;;0.60;0.47;;;;;;;15.98;77.16;96516.69;4367388;32;20212;-62
2022/07/08 04:50:59;;;;;;;0.20;0.20;;;;;;;16.07;76.99;96508.72;4367408;32;20193;-59
2022/07/08 04:53:26;;;;;;;0.53;0.37;;;;;;;16.04;73.24;96520.03;4373235;32;20226;-58
2022/07/08 04:55:53;;;;;;;8.90;0.87;;;;;;;15.90;72.85;96527.28;4328516;32;20288;-59
2022/07/08 04:58:20;;;;;;;0.30;0.30;;;;;;;15.93;75.07;96524.81;4355158;32;20228;-59
2022/07/08 05:00:47;;;;;;;1.73;0.50;;;;;;;15.96;74.00;96529.56;4309784;32;20294;-59
2022/07/08 05:03:15;;;;;;;0.50;0.50;;;;;;;15.76;68.87;96525.41;4339163;32;20219;-59
2022/07/08 05:05:41;;;;;;;0.67;0.67;;;;;;;15.61;71.74;96528.34;4356108;32;20237;-58
2022/07/08 05:08:09;;;;;;;0.43;0.43;;;;;;;15.38;71.46;96523.94;4333482;32;20197;-59
2022/07/08 05:10:35;;;;;;;2.23;0.90;;;;;;;15.39;71.56;96528.16;4365588;32;20255;-59
2022/07/08 05:13:02;;;;;;;0.23;0.23;;;;;;;15.48;70.05;96535.22;4334543;32;20197;-59
2022/07/08 05:15:28;;;;;;;0.40;0.40;;;;;;;15.48;73.04;96527.19;4353621;32;20255;-59
2022/07/08 05:17:55;;;;;;;10.17;0.53;;;;;;;15.77;73.65;96529.66;4371169;32;20193;-59
2022/07/08 05:20:22;;;;;;;1.37;0.73;;;;;;;15.96;73.22;96534.13;4355053;32;20197;-60
2022/07/08 05:22:47;;;;;;;0.80;0.47;;;;;;;15.92;68.19;96538.47;4343479;32;20303;-59
2022/07/08 05:25:14;;;;;;;0.10;0.10;;;;;;;15.62;68.90;96543.28;4374214;32;20193;-59
2022/07/08 05:27:42;;;;;;;1.03;0.80;;;;;;;15.68;70.15;96544.81;4353556;32;20230;-59
2022/07/08 05:30:13;;;;;;;0.10;0.10;;;;;;;15.75;69.88;96542.53;4365175;32;20211;-59
2022/07/08 05:32:43;;;;;;;0.50;0.37;;;;;;;15.98;71.12;96538.09;4348319;32;20192;-59
2022/07/08 05:35:12;;;;;;;0.50;0.50;;;;;;;16.04;71.71;96552.16;4363571;32;20274;-59
2022/07/08 05:37:38;;;;;;;5.13;1.20;;;;;;;16.02;71.70;96543.63;4363319;32;20264;-59
2022/07/08 05:40:09;;;;;;;0.60;0.40;;;;;;;16.19;73.08;96554.56;4353000;32;20302;-59
2022/07/08 05:42:35;;;;;;;0.57;0.57;;;;;;;15.91;70.47;96553.75;4366159;32;20188;-60
2022/07/08 05:45:09;;;;;;;0.20;0.20;;;;;;;16.05;72.61;96553.75;4344989;32;20200;-59
2022/07/08 05:47:35;;;;;;;0.40;0.40;;;;;;;16.06;68.80;96548.09;4366630;32;20192;-59
2022/07/08 05:50:00;;;;;;;0.27;0.27;;;;;;;16.01;69.55;96550.88;4363493;32;20211;-59
2022/07/08 05:52:25;;;;;;;2.03;1.23;;;;;;;16.07;71.99;96557.72;4372639;32;20196;-60
2022/07/08 05:54:53;;;;;;;1.07;0.50;;;;;;;16.27;72.04;96550.38;4329288;32;20322;-59
2022/07/08 05:57:22;;;;;;;0.40;0.40;;;;;;;16.00;69.18;96549.28;4351599;32;20204;-59
2022/07/08 05:59:48;;;;;;;0.47;0.47;;;;;;;15.92;66.07;96551.88;4290915;32;20216;-59
2022/07/08 06:02:16;;;;;;;0.40;0.40;;;;;;;15.69;65.09;96557.09;4334225;32;20200;-59
2022/07/08 06:04:42;;;;;;;0.30;0.30;;;;;;;15.57;65.82;96558.66;4344863;32;20214;-59
2022/07/08 06:07:18;;;;;;;0.40;0.40;;;;;;;15.55;69.37;96561.59;4332336;32;20243;-58
2022/07/08 06:09:43;;;;;;;0.30;0.30;;;;;;;15.37;66.72;96567.78;4329808;32;20223;-58
2022/07/08 06:12:12;;;;;;;1.70;0.43;;;;;;;15.47;69.50;96570.28;4326369;32;20196;-58
2022/07/08 06:14:37;;;;;;;0.40;0.40;;;;;;;15.61;65.75;96568.47;4336511;32;20229;-58
2022/07/08 06:17:04;;;;;;;1.67;1.57;;;;;;;15.85;67.57;96570.19;4357896;32;20239;-59
2022/07/08 06:19:34;;;;;;;3.77;0.83;;;;;;;16.11;70.83;96558.72;4349845;32;20197;-59
2022/07/08 06:22:01;;;;;;;0.50;0.50;;;;;;;16.24;70.09;96562.47;4312987;32;20253;-60
2022/07/08 06:24:26;;;;;;;0.77;0.77;;;;;;;16.23;66.73;96568.12;4355931;32;20275;-60
2022/07/08 06:26:55;;;;;;;1.53;1.20;;;;;;;16.32;68.44;96564.47;4344800;32;20248;-61
2022/07/08 06:29:20;;;;;;;0.83;0.67;;;;;;;16.33;66.09;96575.97;4349518;32;20189;-62
2022/07/08 06:31:49;;;;;;;0.37;0.37;;;;;;;16.29;70.52;96583.78;4360397;32;20222;-60
2022/07/08 06:34:15;;;;;;;0.20;0.20;;;;;;;16.29;63.80;96583.78;4367362;32;20227;-62
2022/07/08 06:36:42;;;;;;;2.93;0.53;;;;;;;16.24;67.52;96572.38;4368846;32;20245;-59
2022/07/08 06:39:08;;;;;;;0.50;0.50;;;;;;;16.21;62.34;96583.72;4336474;32;20227;-59
2022/07/08 06:41:35;;;;;;;0.20;0.20;;;;;;;16.31;67.90;96573.59;4333475;32;20280;-67
2022/07/08 06:44:02;;;;;;;0.33;0.33;;;;;;;16.59;68.16;96568.19;4347684;32;20216;-60
2022/07/08 06:46:29;;;;;;;0.10;0.10;;;;;;;16.63;64.50;96566.47;4366162;32;20254;-60
2022/07/08 06:48:57;;;;;;;0.50;0.50;;;;;;;16.79;67.04;96565.91;4355185;32;20275;-43
2022/07/08 06:51:26;;;;;;;0.90;0.90;;;;;;;17.12;67.72;96574.53;4331433;32;20298;-44
2022/07/08 06:56:40;;;;;;;0.50;0.50;;;;;;;18.04;66.24;96574.97;4367635;32;20248;-45
2022/07/08 06:59:06;;;;;;;0.47;0.47;;;;;;;18.19;63.03;96578.00;4339454;32;20265;-46
2022/07/08 07:01:34;;;;;;;1.60;0.93;;;;;;;18.58;67.48;96578.28;4340714;32;20192;-52
2022/07/08 07:04:01;;;;;;;4.57;0.97;;;;;;;19.02;60.77;96593.41;4325608;32;20214;-51
2022/07/08 07:06:28;;;;;;;0.20;0.20;;;;;;;18.63;55.90;96586.22;4356025;32;20248;-47
2022/07/08 07:08:54;;;;;;;1.93;0.97;;;;;;;19.04;61.75;96591.97;4326379;32;20193;-47
2022/07/08 07:11:26;;;;;;;0.40;0.40;;;;;;;18.90;55.20;96588.66;4352488;32;20219;-45
2022/07/08 07:13:54;;;;;;;0.80;0.80;;;;;;;18.31;61.28;96593.53;4345339;32;20255;-42
2022/07/08 07:16:21;;;;;;;0.20;0.20;;;;;;;18.69;63.00;96585.00;4346327;32;20192;-45
2022/07/08 07:18:48;;;;;;;0.33;0.33;;;;;;;18.72;56.56;96589.72;4335204;32;20193;-48
2022/07/08 07:21:13;;;;;;;0.73;0.73;;;;;;;18.89;54.90;96589.75;4328096;32;20271;-46
2022/07/08 07:23:41;;;;;;;2.10;1.30;;;;;;;18.73;56.36;96594.78;4369814;32;20219;-44
2022/07/08 07:26:10;;;;;;;0.37;0.37;;;;;;;18.50;53.62;96596.75;4350751;32;20242;-48
2022/07/08 07:28:36;;;;;;;0.83;0.83;;;;;;;18.14;55.10;96596.16;4365181;32;20224;-46
2022/07/08 07:31:11;;;;;;;0.20;0.20;;;;;;;18.49;62.39;96597.88;4371568;32;20184;-57
2022/07/08 07:33:37;;;;;;;0.67;0.67;;;;;;;18.67;60.44;96593.37;4343891;32;20237;-48
2022/07/08 07:36:11;;;;;;;3.97;1.27;;;;;;;18.55;56.51;96596.63;4347095;32;20219;-47
2022/07/08 07:38:38;;;;;;;0.30;0.30;;;;;;;18.72;59.54;96600.47;4341399;32;20247;-61
2022/07/08 07:41:11;;;;;;;0.10;0.10;;;;;;;17.82;55.72;96598.06;4353483;32;20230;-62
2022/07/08 07:43:38;;;;;;;0.40;0.40;;;;;;;17.33;57.47;96611.59;4347182;32;20238;-61
2022/07/08 07:46:07;;;;;;;0.20;0.20;;;;;;;17.08;59.11;96608.41;4342428;32;20188;-59
2022/07/08 07:48:33;;;;;;;0.30;0.30;;;;;;;16.85;59.54;96614.81;4341013;32;20228;-60
2022/07/08 07:51:00;;;;;;;0.20;0.20;;;;;;;16.68;59.36;96611.97;4375965;32;20204;-60
2022/07/08 07:53:27;;;;;;;0.53;0.53;;;;;;;16.64;60.73;96611.78;4332318;32;20197;-61
2022/07/08 07:55:59;;;;;;;0.53;0.53;;;;;;;16.72;60.64;96613.75;4330515;32;20272;-58
2022/07/08 07:58:26;;;;;;;0.77;0.50;;;;;;;16.63;61.69;96612.03;4344288;32;20231;-62
2022/07/08 08:00:52;;;;;;;1.13;0.93;;;;;;;16.63;63.05;96612.03;4363284;32;20219;-58
2022/07/08 08:03:19;;;;;;;0.30;0.30;;;;;;;16.37;62.99;96614.47;4342639;32;20244;-60
2022/07/08 08:05:46;;;;;;;0.30;0.30;;;;;;;16.24;64.52;96616.03;4289977;32;20223;-59
2022/07/08 08:08:13;;;;;;;0.43;0.43;;;;;;;16.25;63.77;96620.28;4297094;32;20216;-60
2022/07/08 08:10:40;;;;;;;0.80;0.80;;;;;;;15.99;64.58;96617.31;4314658;32;20201;-60
2022/07/08 08:13:07;;;;;;;0.30;0.30;;;;;;;16.25;66.26;96622.97;4364551;32;20217;-61
2022/07/08 08:15:39;;;;;;;0.50;0.50;;;;;;;16.19;65.38;96631.41;4362040;32;20200;-61
2022/07/08 08:18:06;;;;;;;0.60;0.60;;;;;;;16.12;65.22;96629.12;4363586;32;20208;-66
2022/07/08 08:20:33;;;;;;;0.70;0.70;;;;;;;16.06;66.01;96638.31;4335843;32;20201;-67
2022/07/08 08:23:00;;;;;;;0.40;0.33;;;;;;;16.07;65.30;96634.56;4334356;32;20250;-59
2022/07/08 08:25:28;;;;;;;0.30;0.30;;;;;;;16.22;65.12;96628.91;4358428;32;20280;-59
2022/07/08 08:27:58;;;;;;;0.50;0.50;;;;;;;16.30;65.55;96630.91;4353340;32;20355;-60
2022/07/08 08:30:25;;;;;;;0.50;0.50;;;;;;;16.28;65.82;96624.25;4370417;32;20271;-60
2022/07/08 08:32:51;;;;;;;1.13;0.50;;;;;;;16.32;66.13;96633.28;4344452;32;20212;-59
2022/07/08 08:35:18;;;;;;;0.90;0.87;;;;;;;16.16;66.68;96635.47;4369689;32;20279;-59
2022/07/08 08:37:45;;;;;;;1.23;0.30;;;;;;;16.17;65.61;96637.06;4370369;32;20192;-60
2022/07/08 08:40:14;;;;;;;0.60;0.60;;;;;;;16.07;67.02;96632.69;4341909;32;20192;-60
2022/07/08 08:42:41;;;;;;;0.37;0.37;;;;;;;15.95;66.62;96628.91;4364435;32;20226;-61
2022/07/08 08:45:09;;;;;;;2.53;0.43;;;;;;;16.16;65.52;96630.13;4328004;32;20241;-61
2022/07/08 08:47:36;;;;;;;0.60;0.60;;;;;;;16.36;66.77;96635.09;4331680;32;20197;-60
2022/07/08 08:52:51;;;;;;;0.57;0.57;;;;;;;16.30;66.18;96630.91;4366787;32;20232;-60
2022/07/08 08:55:31;;;;;;;0.43;0.43;;;;;;;16.26;65.49;96627.22;4329441;32;20313;-58
2022/07/08 08:58:05;;;;;;;0.40;0.40;;;;;;;16.60;66.19;96634.88;4359823;32;20193;-60
2022/07/08 09:00:33;;;;;;;1.60;0.30;;;;;;;16.58;64.60;96641.63;4340574;32;20200;-59
2022/07/08 09:02:59;;;;;;;1.27;0.63;;;;;;;16.77;65.57;96632.41;4310334;32;20249;-59
2022/07/08 09:05:32;;;;;;;0.50;0.50;;;;;;;16.58;64.83;96636.28;4358370;32;20255;-59
2022/07/08 09:08:00;;;;;;;0.53;0.53;;;;;;;16.67;66.12;96632.63;4370030;32;20193;-59
2022/07/08 09:10:27;;;;;;;2.57;0.87;;;;;;;16.55;65.69;96634.19;4368979;32;20209;-58
2022/07/08 09:13:15;;;;;;;0.33;0.33;;;;;;;16.66;66.18;96639.06;4326413;32;20199;-59
2022/07/08 09:15:50;;;;;;;0.20;0.20;;;;;;;16.54;64.93;96640.63;4361725;32;20193;-58
2022/07/08 09:18:20;;;;;;;0.30;0.30;;;;;;;16.66;66.09;96635.59;4347694;32;20231;-57
2022/07/08 09:20:54;;;;;;;0.40;0.40;;;;;;;16.56;66.03;96641.13;4353449;32;20184;-58
2022/07/08 09:23:38;;;;;;;0.23;0.23;;;;;;;16.56;65.59;96636.56;4330104;32;20208;-59
2022/07/08 09:26:10;;;;;;;0.43;0.43;;;;;;;16.86;65.83;96637.84;4365674;32;20199;-59
2022/07/08 09:28:46;;;;;;;0.53;0.53;;;;;;;16.75;65.43;96629.25;4355754;32;20192;-60
2022/07/08 09:31:13;;;;;;;0.20;0.20;;;;;;;16.58;65.01;96636.28;4371296;32;20204;-59
2022/07/08 09:33:54;;;;;;;0.93;0.77;;;;;;;16.48;65.17;96638.06;4330149;32;20215;-58
2022/07/08 09:36:21;;;;;;;0.63;0.63;;;;;;;16.55;63.52;96635.00;4327829;32;20204;-59
2022/07/08 09:38:48;;;;;;;0.60;0.60;;;;;;;16.57;63.45;96640.06;4328948;32;20287;-59
2022/07/08 09:41:15;;;;;;;2.10;0.73;;;;;;;16.78;64.26;96635.88;4363893;32;20215;-59
2022/07/08 09:43:56;;;;;;;0.47;0.47;;;;;;;16.80;62.48;96639.87;4344616;32;20253;-59
2022/07/08 09:46:23;;;;;;;0.27;0.27;;;;;;;16.78;62.28;96638.56;4363644;32;20223;-58
2022/07/08 09:48:50;;;;;;;0.30;0.30;;;;;;;16.88;62.81;96641.03;4348518;32;20208;-59
2022/07/08 09:51:21;;;;;;;0.40;0.40;;;;;;;16.94;64.20;96641.72;4347079;32;20254;-59
2022/07/08 09:53:48;;;;;;;0.40;0.40;;;;;;;17.30;63.30;96637.16;4364179;32;20216;-59
2022/07/08 09:56:15;;;;;;;0.30;0.30;;;;;;;17.26;62.96;96640.72;4298033;32;20275;-59
2022/07/08 09:58:46;;;;;;;2.57;1.17;;;;;;;17.40;62.25;96647.66;4354930;32;20197;-58
2022/07/08 10:01:19;;;;;;;1.33;0.60;;;;;;;17.28;62.21;96638.53;4348429;32;20205;-59
2022/07/08 10:03:46;;;;;;;2.10;0.63;;;;;;;17.39;62.02;96634.53;4361929;32;20253;-59
2022/07/08 10:06:12;;;;;;;0.10;0.10;;;;;;;17.21;62.82;96644.34;4371963;32;20193;-59
2022/07/08 10:08:38;;;;;;;0.63;0.63;;;;;;;17.44;61.86;96645.16;4358740;32;20197;-62
2022/07/08 10:11:10;;;;;;;0.33;0.33;;;;;;;17.37;60.96;96647.47;4350302;32;20210;-59
2022/07/08 10:13:39;;;;;;;0.43;0.43;;;;;;;17.59;61.74;96642.09;4365497;32;20200;-60
2022/07/08 10:16:11;;;;;;;0.40;0.40;;;;;;;17.53;61.31;96646.78;4322104;32;20181;-60
2022/07/08 10:18:56;;;;;;;0.53;0.53;;;;;;;17.66;62.07;96639.03;4342636;32;20221;-59
2022/07/08 10:21:30;;;;;;;1.77;0.80;;;;;;;17.55;62.58;96643.81;4346735;32;20188;-59
2022/07/08 10:23:58;;;;;;;0.40;0.40;;;;;;;17.61;62.29;96637.22;4363047;32;20220;-59
2022/07/08 10:26:38;;;;;;;0.20;0.20;;;;;;;17.56;60.37;96642.72;4367977;32;20180;-59
2022/07/08 10:29:09;;;;;;;0.27;0.27;;;;;;;17.62;60.55;96635.34;4348886;32;20219;-60
2022/07/08 10:31:52;;;;;;;0.87;0.40;;;;;;;17.60;61.75;96640.22;4367604;32;20208;-59
2022/07/08 10:34:22;;;;;;;1.13;1.03;;;;;;;17.76;61.20;96644.94;4381911;32;20196;-61
2022/07/08 10:36:50;;;;;;;0.43;0.43;;;;;;;17.85;58.73;96634.25;4350058;32;20197;-59
2022/07/08 10:39:42;;;;;;;0.63;0.63;;;;;;;17.95;58.38;96641.25;4373633;32;20255;-59
2022/07/08 10:42:10;;;;;;;0.40;0.40;;;;;;;17.99;61.10;96642.22;4356116;32;20216;-59
2022/07/08 10:44:52;;;;;;;0.40;0.40;;;;;;;17.83;59.85;96642.63;4367642;32;20232;-60
2022/07/08 10:47:29;;;;;;;0.83;0.40;;;;;;;17.82;59.80;96643.72;4363978;32;20193;-59
2022/07/08 10:50:05;;;;;;;0.57;0.57;;;;;;;17.84;59.15;96636.16;4367589;32;20200;-59
2022/07/08 10:52:38;;;;;;;1.93;0.67;;;;;;;17.78;58.74;96645.44;4335108;32;20286;-59
2022/07/08 10:55:16;;;;;;;1.50;0.70;;;;;;;17.99;61.21;96639.53;4354402;32;20188;-60
2022/07/08 10:57:59;;;;;;;0.43;0.43;;;;;;;18.06;59.25;96640.69;4352982;32;20270;-58
2022/07/08 11:00:25;;;;;;;1.83;0.77;;;;;;;18.31;58.74;96644.59;4345872;32;20286;-59
2022/07/08 11:02:52;;;;;;;0.53;0.53;;;;;;;18.24;58.31;96638.88;4341124;32;20204;-57
2022/07/08 11:05:40;;;;;;;0.40;0.40;;;;;;;18.07;58.20;96636.12;4322010;32;20213;-59
2022/07/08 11:08:26;;;;;;;0.47;0.47;;;;;;;17.99;57.34;96636.84;4339000;32;20193;-58
2022/07/08 11:10:55;;;;;;;0.60;0.60;;;;;;;18.14;56.33;96633.75;4371726;32;20224;-58
2022/07/08 11:13:24;;;;;;;0.90;0.60;;;;;;;17.93;57.79;96633.50;4335795;32;20189;-59
2022/07/08 11:15:52;;;;;;;1.40;0.80;;;;;;;17.99;56.37;96631.47;4346265;32;20274;-59
2022/07/08 11:18:24;;;;;;;0.67;0.67;;;;;;;18.05;58.95;96620.31;4357077;32;20240;-61
2022/07/08 11:21:01;;;;;;;1.43;0.60;;;;;;;18.21;58.30;96623.38;4347897;32;20204;-59
2022/07/08 11:23:31;;;;;;;2.93;0.93;;;;;;;18.23;58.50;96629.25;4357188;32;20215;-59
2022/07/08 11:25:58;;;;;;;0.23;0.23;;;;;;;18.19;55.98;96622.88;4345525;32;20197;-59
2022/07/08 11:28:25;;;;;;;0.50;0.50;;;;;;;18.18;56.33;96634.75;4342301;32;20262;-59
2022/07/08 11:30:51;;;;;;;1.80;1.27;;;;;;;18.07;54.70;96633.44;4365660;32;20205;-58
2022/07/08 11:33:18;;;;;;;0.30;0.30;;;;;;;18.11;54.29;96621.75;4378028;32;20239;-59
2022/07/08 11:35:46;;;;;;;0.70;0.53;;;;;;;18.37;53.86;96626.44;4354158;32;20189;-58
2022/07/08 11:38:37;;;;;;;0.53;0.53;;;;;;;18.47;54.02;96621.59;4377333;32;20236;-59
2022/07/08 11:41:05;;;;;;;0.20;0.20;;;;;;;18.41;54.16;96622.03;4370146;32;20189;-60
2022/07/08 11:43:35;;;;;;;0.30;0.30;;;;;;;18.40;53.74;96623.94;4364721;32;20193;-59
2022/07/08 11:46:30;;;;;;;0.40;0.40;;;;;;;18.38;56.79;96628.03;4373537;32;20185;-59
2022/07/08 11:48:58;;;;;;;2.33;0.50;;;;;;;18.22;54.02;96627.66;4357931;32;20391;-59